Time;durP1;ratioP1;P1;durP2;ratioP2;P2;SDS_P1;SDS_P2;PMS_P1;PMS_P2;Temp;Humidity;BMP_temperature;BMP_pressure;BME280_temperature;BME280_humidity;BME280_pressure;Samples;Min_cycle;Max_cycle;Signal;HPM_P1;HPM_P2
2021/04/10 00:00:12;;;;;;;34.63;17.30;;;;;;;3.96;57.78;100728.03;5030031;28;20033;-50
2021/04/10 00:02:39;;;;;;;44.83;21.45;;;;;;;3.88;57.91;100723.44;5029880;28;20048;-51
2021/04/10 00:05:06;;;;;;;41.95;20.15;;;;;;;3.95;58.21;100717.63;5030499;28;20021;-47
2021/04/10 00:07:32;;;;;;;42.58;20.77;;;;;;;3.76;58.94;100713.97;5029951;28;20045;-50
2021/04/10 00:09:57;;;;;;;42.83;20.08;;;;;;;3.75;58.41;100720.22;5043044;28;20049;-50
2021/04/10 00:12:22;;;;;;;43.42;21.67;;;;;;;3.72;59.40;100721.31;5050007;28;20582;-52
2021/04/10 00:14:48;;;;;;;50.97;23.50;;;;;;;3.56;59.45;100712.25;5049976;28;20361;-53
2021/04/10 00:17:13;;;;;;;43.25;21.48;;;;;;;3.53;60.53;100713.38;5036919;28;20014;-51
2021/04/10 00:19:39;;;;;;;41.22;20.08;;;;;;;3.50;61.11;100717.09;5029713;28;20026;-53
2021/04/10 00:22:04;;;;;;;39.50;20.23;;;;;;;3.53;60.51;100710.72;5029594;28;20120;-49
2021/04/10 00:24:30;;;;;;;37.50;18.67;;;;;;;3.50;60.50;100717.09;5029580;28;20048;-49
2021/04/10 00:26:55;;;;;;;36.80;18.25;;;;;;;3.32;60.84;100700.28;5029626;28;20385;-51
2021/04/10 00:29:21;;;;;;;40.30;17.80;;;;;;;3.42;60.69;100709.03;5029867;28;20041;-50
2021/04/10 00:31:46;;;;;;;37.03;17.38;;;;;;;3.45;60.47;100707.94;5029879;28;20026;-49
2021/04/10 00:34:12;;;;;;;40.70;15.60;;;;;;;3.55;59.87;100707.97;5029583;28;20037;-51
2021/04/10 00:36:37;;;;;;;30.70;15.20;;;;;;;3.42;60.35;100703.75;5029100;28;20041;-50
2021/04/10 00:39:04;;;;;;;29.85;12.95;;;;;;;3.37;60.94;100694.59;5029580;28;20029;-47
2021/04/10 00:41:29;;;;;;;30.00;13.45;;;;;;;3.29;60.86;100706.66;5029507;28;20030;-52
2021/04/10 00:43:54;;;;;;;27.05;13.98;;;;;;;3.05;61.94;100698.25;5029699;28;20030;-50
2021/04/10 00:46:20;;;;;;;29.10;12.98;;;;;;;3.18;61.39;100700.63;5030774;28;20029;-51
2021/04/10 00:48:45;;;;;;;25.67;12.57;;;;;;;3.22;62.25;100705.50;5047693;28;20572;-52
2021/04/10 00:51:11;;;;;;;29.35;13.25;;;;;;;3.24;62.01;100700.94;5053134;28;20020;-52
2021/04/10 00:53:36;;;;;;;27.48;12.43;;;;;;;3.02;61.83;100695.84;5051915;28;20100;-51
2021/04/10 00:56:04;;;;;;;29.80;12.63;;;;;;;3.08;63.16;100696.16;5035293;28;20059;-48
2021/04/10 00:58:30;;;;;;;29.73;13.25;;;;;;;3.11;62.25;100705.59;5052097;28;20027;-47
2021/04/10 01:00:55;;;;;;;25.58;11.70;;;;;;;3.12;62.10;100701.97;5053391;28;20025;-50
2021/04/10 01:03:21;;;;;;;24.00;11.57;;;;;;;2.93;61.88;100693.06;5053389;28;20477;-49
2021/04/10 01:05:47;;;;;;;21.98;11.23;;;;;;;2.91;62.62;100697.63;5053472;28;20028;-49
2021/04/10 01:08:12;;;;;;;23.20;11.25;;;;;;;2.94;62.17;100693.88;5052932;28;20035;-52
2021/04/10 01:10:38;;;;;;;24.17;11.00;;;;;;;2.95;61.61;100690.28;5051551;28;20056;-48
2021/04/10 01:13:24;;;;;;;21.85;11.18;;;;;;;2.92;62.99;100699.25;5053331;28;20032;-48
2021/04/10 01:15:56;;;;;;;22.65;10.90;;;;;;;3.01;63.75;100694.19;5037150;28;20017;-48
2021/04/10 01:18:25;;;;;;;18.70;9.55;;;;;;;2.94;62.80;100693.88;5051735;28;20024;-50
2021/04/10 01:21:05;;;;;;;19.20;10.47;;;;;;;2.96;63.10;100697.22;5035269;28;20511;-50
2021/04/10 01:23:58;;;;;;;20.73;10.95;;;;;;;2.96;62.32;100688.50;5051524;28;20267;-48
2021/04/10 01:26:52;;;;;;;16.73;9.50;;;;;;;2.94;62.45;100686.81;5052663;28;20032;-51
2021/04/10 01:29:17;;;;;;;16.20;9.20;;;;;;;2.98;62.35;100684.75;5051302;28;20507;-51
2021/04/10 01:31:50;;;;;;;17.67;9.52;;;;;;;2.96;62.14;100693.75;5034619;28;20131;-50
2021/04/10 01:34:37;;;;;;;18.75;9.75;;;;;;;2.93;63.12;100692.19;5035642;28;20140;-52
2021/04/10 01:37:11;;;;;;;20.30;9.25;;;;;;;2.97;63.04;100691.00;5035360;28;20122;-50
2021/04/10 01:39:36;;;;;;;16.83;8.73;;;;;;;2.91;63.16;100689.72;5053071;28;20353;-51
2021/04/10 01:42:02;;;;;;;17.60;8.48;;;;;;;2.96;60.69;100689.31;5053668;28;20123;-51
2021/04/10 01:44:27;;;;;;;15.38;8.30;;;;;;;2.91;61.73;100687.09;5030404;28;20391;-47
2021/04/10 01:46:52;;;;;;;15.50;8.02;;;;;;;2.92;62.06;100687.94;5016833;28;20108;-48
2021/04/10 01:49:18;;;;;;;15.32;7.65;;;;;;;3.03;63.01;100692.28;5035208;28;20025;-48
2021/04/10 01:51:43;;;;;;;14.95;8.65;;;;;;;3.27;60.99;100686.69;5053183;28;20029;-47
2021/04/10 01:54:09;;;;;;;18.13;8.57;;;;;;;3.11;61.17;100682.75;5051660;28;20463;-48
2021/04/10 01:56:37;;;;;;;21.92;8.90;;;;;;;2.80;61.13;100686.31;5051891;28;20032;-49
2021/04/10 01:59:02;;;;;;;18.42;9.25;;;;;;;2.76;61.77;100688.41;5051609;28;20087;-47
2021/04/10 02:01:28;;;;;;;23.90;9.32;;;;;;;2.53;63.69;100687.69;5052890;28;20025;-50
2021/04/10 02:03:53;;;;;;;18.85;9.50;;;;;;;2.60;61.62;100686.22;5051643;28;20029;-49
2021/04/10 02:06:19;;;;;;;24.13;9.65;;;;;;;2.74;62.96;100682.41;5034891;28;20500;-50
2021/04/10 02:08:45;;;;;;;19.45;9.65;;;;;;;2.70;61.45;100678.38;5050623;28;20121;-52
2021/04/10 02:11:11;;;;;;;20.67;10.02;;;;;;;2.78;61.17;100689.09;5034634;28;20120;-49
2021/04/10 02:13:36;;;;;;;20.05;9.80;;;;;;;2.86;60.41;100686.66;5051894;28;20025;-51
2021/04/10 02:16:02;;;;;;;19.52;9.32;;;;;;;2.76;61.34;100683.16;5052900;28;20021;-48
2021/04/10 02:18:28;;;;;;;20.17;10.18;;;;;;;2.74;60.79;100691.16;5052816;28;20021;-48
2021/04/10 02:20:55;;;;;;;21.92;10.38;;;;;;;2.61;62.11;100679.16;5051401;28;20500;-47
2021/04/10 02:23:21;;;;;;;21.77;11.05;;;;;;;2.61;61.93;100677.38;5052523;28;20037;-51
2021/04/10 02:25:46;;;;;;;21.08;11.13;;;;;;;2.66;61.23;100683.06;5052409;28;20104;-51
2021/04/10 02:28:12;;;;;;;18.58;10.00;;;;;;;2.82;61.08;100681.75;5052244;28;20020;-50
2021/04/10 02:30:38;;;;;;;21.80;10.80;;;;;;;2.54;60.76;100686.72;5052437;28;20021;-52
2021/04/10 02:33:05;;;;;;;22.90;10.45;;;;;;;2.58;61.84;100682.88;5034354;28;20040;-51
2021/04/10 02:35:35;;;;;;;20.05;10.30;;;;;;;2.53;60.04;100685.06;5051124;28;20029;-52
2021/04/10 02:38:00;;;;;;;20.92;10.18;;;;;;;2.62;59.13;100679.03;5051986;28;20032;-52
2021/04/10 02:40:30;;;;;;;21.20;10.20;;;;;;;2.58;59.39;100656.59;5050557;28;20029;-49
2021/04/10 02:42:55;;;;;;;21.55;11.02;;;;;;;2.64;58.74;100679.72;5051147;28;20029;-51
2021/04/10 02:45:25;;;;;;;23.13;10.77;;;;;;;2.63;60.23;100675.47;5034403;28;20040;-52
2021/04/10 02:47:50;;;;;;;26.40;11.63;;;;;;;2.83;58.90;100686.91;5050652;28;20420;-48
2021/04/10 02:50:19;;;;;;;22.20;11.52;;;;;;;2.70;58.77;100689.75;5051034;28;20033;-49
2021/04/10 02:52:47;;;;;;;20.73;10.90;;;;;;;2.87;59.17;100690.94;5050831;28;20068;-50
2021/04/10 02:55:49;;;;;;;22.23;11.35;;;;;;;2.89;58.57;100691.66;5034537;28;20037;-49
2021/04/10 02:58:14;;;;;;;29.73;12.52;;;;;;;2.58;59.22;100688.13;4990129;28;20042;-52
2021/04/10 03:00:43;;;;;;;26.83;12.23;;;;;;;2.35;59.65;100654.09;5038115;28;20032;-52
2021/04/10 03:03:11;;;;;;;25.13;11.63;;;;;;;2.55;59.52;100691.00;5033765;28;20139;-50
2021/04/10 03:05:37;;;;;;;26.20;11.30;;;;;;;2.53;59.30;100682.44;5051523;28;20029;-52
2021/04/10 03:08:02;;;;;;;29.10;11.68;;;;;;;2.60;59.34;100680.13;5033698;28;20122;-50
2021/04/10 03:10:28;;;;;;;23.73;11.90;;;;;;;2.69;58.54;100690.69;5029595;28;20049;-48
2021/04/10 03:12:55;;;;;;;25.73;11.45;;;;;;;2.48;57.89;100689.88;5030369;28;20112;-47
2021/04/10 03:15:21;;;;;;;22.73;11.30;;;;;;;2.43;59.01;100690.25;5030132;28;20114;-51
2021/04/10 03:17:47;;;;;;;24.45;11.63;;;;;;;2.67;58.61;100700.50;5030537;28;20029;-49
2021/04/10 03:20:13;;;;;;;26.60;12.38;;;;;;;2.40;59.44;100697.53;5029974;28;20108;-49
2021/04/10 03:22:46;;;;;;;25.38;12.27;;;;;;;2.59;58.97;100691.59;5031313;28;20028;-51
2021/04/10 03:25:12;;;;;;;23.85;11.35;;;;;;;2.41;58.41;100694.78;5031096;28;20030;-51
2021/04/10 03:27:38;;;;;;;24.67;11.70;;;;;;;2.42;60.14;100693.00;5031455;28;20036;-48
2021/04/10 03:30:05;;;;;;;21.20;11.32;;;;;;;2.68;57.82;100693.44;5029664;28;20124;-50
2021/04/10 03:32:30;;;;;;;22.30;10.75;;;;;;;2.43;59.26;100697.31;5029330;28;20064;-47
2021/04/10 03:34:55;;;;;;;23.75;10.98;;;;;;;2.42;58.54;100696.47;5013081;28;20022;-48
2021/04/10 03:37:21;;;;;;;28.33;12.35;;;;;;;2.13;59.83;100683.09;5030987;28;20017;-48
2021/04/10 03:39:47;;;;;;;32.08;12.23;;;;;;;2.05;61.46;100701.28;5029757;28;20022;-49
2021/04/10 03:42:12;;;;;;;28.48;12.40;;;;;;;2.07;60.12;100696.75;5029959;28;20037;-50
2021/04/10 03:44:37;;;;;;;21.55;11.57;;;;;;;2.04;60.53;100697.84;5020853;28;20037;-51
2021/04/10 03:47:04;;;;;;;26.02;11.82;;;;;;;2.08;61.17;100704.50;5031078;28;20096;-51
2021/04/10 03:49:29;;;;;;;29.20;13.07;;;;;;;2.28;60.63;100700.22;5050680;28;20028;-49
2021/04/10 03:51:55;;;;;;;24.33;11.50;;;;;;;3.40;61.87;100707.50;5050835;28;20021;-53
2021/04/10 03:54:20;;;;;;;24.60;11.27;;;;;;;3.39;56.32;100706.69;5050730;28;20457;-51
2021/04/10 03:56:46;;;;;;;26.05;11.85;;;;;;;3.01;57.45;100709.94;5050208;28;20388;-52
2021/04/10 03:59:11;;;;;;;28.42;12.13;;;;;;;3.01;58.18;100713.44;5034818;28;20091;-38
2021/04/10 04:01:36;;;;;;;24.05;11.20;;;;;;;2.63;57.11;100712.25;5049132;28;20090;-37
2021/04/10 04:04:02;;;;;;;28.65;12.40;;;;;;;2.88;58.36;100720.72;5050396;28;20032;-37
2021/04/10 04:06:28;;;;;;;24.77;11.98;;;;;;;2.89;57.50;100717.94;5051132;28;20082;-37
2021/04/10 04:08:53;;;;;;;25.58;11.15;;;;;;;3.08;56.87;100717.19;5050376;28;20049;-37
2021/04/10 04:11:19;;;;;;;27.70;11.50;;;;;;;3.19;57.31;100724.16;5050396;28;20112;-38
2021/04/10 04:13:44;;;;;;;30.70;12.85;;;;;;;3.18;58.37;100722.53;5049246;28;20024;-37
2021/04/10 04:16:09;;;;;;;24.48;12.52;;;;;;;3.45;56.00;100727.19;5050406;28;20079;-37
2021/04/10 04:18:35;;;;;;;28.23;12.80;;;;;;;3.49;56.08;100725.97;5050111;28;20037;-51
2021/04/10 04:21:00;;;;;;;31.33;12.77;;;;;;;3.69;57.51;100734.75;5049771;28;20029;-51
2021/04/10 04:23:26;;;;;;;25.25;12.25;;;;;;;3.89;53.89;100732.16;5049972;28;20029;-48
2021/04/10 04:25:51;;;;;;;26.45;12.18;;;;;;;3.94;52.89;100732.59;5050167;28;20025;-53
2021/04/10 04:28:17;;;;;;;27.80;12.15;;;;;;;5.22;56.91;100740.25;5050232;28;20025;-52
2021/04/10 04:30:43;;;;;;;25.67;12.77;;;;;;;5.03;52.80;100743.78;5050200;28;20021;-51
2021/04/10 04:33:08;;;;;;;34.40;14.38;;;;;;;4.60;53.12;100741.63;5050067;28;20437;-51
2021/04/10 04:35:34;;;;;;;30.95;14.05;;;;;;;4.76;52.29;100733.97;5049686;28;20037;-37
2021/04/10 04:37:59;;;;;;;32.40;13.88;;;;;;;4.75;52.02;100734.13;5049460;28;20025;-37
2021/04/10 04:40:25;;;;;;;29.73;12.05;;;;;;;4.79;50.71;100738.13;5049328;28;20033;-37
2021/04/10 04:42:50;;;;;;;22.70;12.00;;;;;;;4.95;50.29;100741.03;5049483;28;20473;-37
2021/04/10 04:45:16;;;;;;;23.63;12.00;;;;;;;5.72;48.99;100749.63;5049458;28;20040;-37
2021/04/10 04:47:41;;;;;;;23.50;10.68;;;;;;;6.36;45.81;100745.19;5049369;28;20086;-37
2021/04/10 04:50:07;;;;;;;21.75;10.80;;;;;;;6.56;45.58;100748.50;5049433;28;20112;-38
2021/04/10 04:52:33;;;;;;;22.38;10.77;;;;;;;6.30;46.25;100750.25;5049508;28;20152;-37
2021/04/10 04:54:58;;;;;;;30.45;15.32;;;;;;;6.61;45.66;100746.22;5049312;28;20021;-38
2021/04/10 04:57:24;;;;;;;24.50;12.40;;;;;;;6.92;46.42;100752.91;5049344;28;20456;-38
2021/04/10 04:59:49;;;;;;;30.95;16.40;;;;;;;6.97;46.33;100754.09;5049365;28;20025;-38
2021/04/10 05:02:15;;;;;;;21.13;11.98;;;;;;;7.08;45.77;100746.88;5049294;28;20484;-39
2021/04/10 05:04:41;;;;;;;25.75;12.18;;;;;;;7.34;44.78;100752.16;5049171;28;20053;-38
2021/04/10 05:07:06;;;;;;;23.10;11.10;;;;;;;7.58;43.88;100751.47;5047835;28;20033;-38
2021/04/10 05:09:32;;;;;;;18.65;10.10;;;;;;;7.90;42.80;100752.53;5047196;28;20123;-37
2021/04/10 05:11:57;;;;;;;18.67;9.75;;;;;;;7.91;42.50;100752.38;5048583;28;20055;-37
2021/04/10 05:14:23;;;;;;;16.42;8.93;;;;;;;8.09;41.38;100743.47;5048761;28;20028;-38
2021/04/10 05:16:48;;;;;;;19.25;9.88;;;;;;;8.26;41.51;100741.69;5048599;28;20025;-38
2021/04/10 05:19:13;;;;;;;21.02;9.80;;;;;;;8.22;41.46;100750.00;5048340;28;20068;-38
2021/04/10 05:21:40;;;;;;;17.33;9.30;;;;;;;8.60;41.94;100750.38;5046393;28;20053;-39
2021/04/10 05:24:06;;;;;;;26.13;12.52;;;;;;;8.88;40.57;100749.19;5047796;28;20105;-37
2021/04/10 05:26:31;;;;;;;22.08;11.35;;;;;;;8.85;39.61;100750.34;5047948;28;20138;-37
2021/04/10 05:28:56;;;;;;;19.58;10.52;;;;;;;8.99;39.33;100751.50;5047971;28;20045;-38
2021/04/10 05:31:22;;;;;;;21.33;10.50;;;;;;;9.42;38.46;100754.69;5048340;28;20025;-38
2021/04/10 05:33:48;;;;;;;22.27;10.55;;;;;;;9.74;38.65;100768.88;5051660;28;20021;-38
2021/04/10 05:36:13;;;;;;;23.25;11.20;;;;;;;9.82;38.26;100765.34;5040701;28;20416;-39
2021/04/10 05:38:39;;;;;;;21.92;11.38;;;;;;;10.31;37.51;100760.59;5032702;28;20033;-38
2021/04/10 05:41:06;;;;;;;23.45;11.02;;;;;;;10.44;36.95;100762.69;5042126;28;20017;-38
2021/04/10 05:43:31;;;;;;;21.98;11.65;;;;;;;10.69;36.56;100754.50;5038653;28;20033;-38
2021/04/10 05:45:57;;;;;;;20.83;12.32;;;;;;;11.70;36.53;100763.75;5040408;28;20040;-38
2021/04/10 05:48:22;;;;;;;20.70;12.10;;;;;;;11.62;34.92;100753.19;5045019;28;20020;-38
2021/04/10 05:50:48;;;;;;;23.05;12.18;;;;;;;11.71;33.68;100756.59;5036181;28;20025;-38
2021/04/10 05:53:13;;;;;;;23.88;12.27;;;;;;;11.79;33.71;100753.00;5040239;28;20029;-38
2021/04/10 05:55:39;;;;;;;22.75;10.73;;;;;;;11.57;34.26;100752.91;5038360;28;20021;-38
2021/04/10 05:58:04;;;;;;;24.30;11.80;;;;;;;11.90;34.89;100755.22;5040793;28;20029;-39
2021/04/10 06:00:30;;;;;;;27.40;10.63;;;;;;;13.50;38.82;100759.25;5040695;28;20044;-38
2021/04/10 06:02:56;;;;;;;16.73;10.07;;;;;;;14.85;31.44;100751.38;5038358;28;20040;-39
2021/04/10 06:05:21;;;;;;;16.65;9.20;;;;;;;16.00;32.13;100746.28;5039311;28;20032;-39
2021/04/10 06:07:47;;;;;;;17.42;9.43;;;;;;;16.42;31.43;100749.34;5035726;28;20106;-37
2021/04/10 06:10:14;;;;;;;20.30;9.90;;;;;;;17.48;28.49;100744.06;5040327;28;20057;-38
2021/04/10 06:12:39;;;;;;;23.85;12.82;;;;;;;18.01;28.70;100755.22;5040898;28;20024;-38
2021/04/10 06:15:06;;;;;;;16.75;9.73;;;;;;;18.61;27.01;100752.47;5044946;28;20075;-38
2021/04/10 06:17:31;;;;;;;20.67;12.70;;;;;;;19.23;24.85;100743.97;5038488;28;20034;-38
2021/04/10 06:19:57;;;;;;;21.73;13.40;;;;;;;19.54;24.06;100734.63;5041138;28;20025;-39
2021/04/10 06:22:23;;;;;;;25.30;12.63;;;;;;;19.06;24.40;100733.06;5039753;28;20035;-39
2021/04/10 06:24:50;;;;;;;18.50;8.20;;;;;;;17.53;26.12;100733.44;5043610;28;20473;-38
2021/04/10 06:27:15;;;;;;;12.95;8.18;;;;;;;17.98;25.05;100738.47;5039362;28;20040;-38
2021/04/10 06:29:41;;;;;;;13.85;8.07;;;;;;;18.55;24.76;100743.44;5040162;28;20096;-39
2021/04/10 06:32:06;;;;;;;14.75;8.60;;;;;;;18.22;24.75;100745.81;5034315;28;20041;-39
2021/04/10 06:34:32;;;;;;;20.23;10.90;;;;;;;17.79;24.97;100745.75;5035541;28;20044;-39
2021/04/10 06:36:57;;;;;;;14.88;8.30;;;;;;;18.51;24.47;100744.16;5050250;28;20109;-38
2021/04/10 06:39:23;;;;;;;17.65;9.30;;;;;;;18.64;24.56;100735.84;5050754;28;20094;-39
2021/04/10 06:41:48;;;;;;;13.80;8.25;;;;;;;19.29;23.60;100740.31;5051089;28;20038;-39
2021/04/10 06:44:14;;;;;;;16.10;9.05;;;;;;;19.63;23.38;100737.78;5048700;28;20053;-39
2021/04/10 06:46:39;;;;;;;16.85;9.05;;;;;;;19.61;23.41;100734.50;5050685;28;20354;-39
2021/04/10 06:49:05;;;;;;;14.90;8.18;;;;;;;20.19;22.94;100738.03;5051053;28;20037;-39
2021/04/10 06:51:31;;;;;;;19.75;8.68;;;;;;;18.97;23.41;100728.28;5050710;28;20052;-39
2021/04/10 06:53:56;;;;;;;12.98;7.82;;;;;;;19.25;23.37;100735.66;5046927;28;20028;-38
2021/04/10 06:56:27;;;;;;;14.30;7.80;;;;;;;19.26;23.45;100734.56;5048141;28;20029;-38
2021/04/10 06:59:14;;;;;;;13.50;8.07;;;;;;;19.34;23.21;100739.59;5049634;28;20496;-38
2021/04/10 07:01:40;;;;;;;17.73;7.93;;;;;;;18.96;24.12;100738.22;5050065;28;20493;-39
2021/04/10 07:04:05;;;;;;;13.10;8.20;;;;;;;18.46;23.67;100746.72;5048399;28;20040;-38
2021/04/10 07:06:31;;;;;;;16.13;8.90;;;;;;;19.50;23.24;100744.25;5048545;28;20350;-38
2021/04/10 07:08:57;;;;;;;14.07;8.50;;;;;;;20.35;22.70;100739.13;5049167;28;20107;-39
2021/04/10 07:11:22;;;;;;;12.68;7.03;;;;;;;20.73;22.11;100742.22;5048294;28;20036;-39
2021/04/10 07:13:48;;;;;;;28.08;17.95;;;;;;;21.11;21.67;100746.00;5049979;28;20104;-39
2021/04/10 07:16:13;;;;;;;16.17;8.30;;;;;;;21.23;21.56;100739.44;5049327;28;20032;-38
2021/04/10 07:18:39;;;;;;;15.13;7.13;;;;;;;21.83;20.97;100736.94;5049352;28;20029;-39
2021/04/10 07:21:17;;;;;;;11.50;6.78;;;;;;;21.93;20.78;100725.38;5050037;28;20029;-39
2021/04/10 07:23:52;;;;;;;11.55;6.60;;;;;;;22.04;20.17;100724.41;5048231;28;20020;-39
2021/04/10 07:26:20;;;;;;;12.30;6.53;;;;;;;21.36;21.19;100727.44;5049715;28;20032;-39
2021/04/10 07:28:45;;;;;;;12.60;6.72;;;;;;;21.49;20.89;100723.53;5049237;28;20112;-39
2021/04/10 07:31:13;;;;;;;10.45;6.68;;;;;;;20.89;21.31;100736.78;5049240;28;20191;-38
2021/04/10 07:33:42;;;;;;;11.02;6.88;;;;;;;21.29;20.91;100726.78;5048928;28;20532;-39
2021/04/10 07:36:14;;;;;;;14.38;6.60;;;;;;;22.02;20.73;100732.78;5048139;28;20059;-39
2021/04/10 07:38:41;;;;;;;12.95;6.50;;;;;;;21.97;20.59;100735.47;5049397;28;20021;-38
2021/04/10 07:41:26;;;;;;;10.35;6.43;;;;;;;22.72;19.78;100723.94;5049363;28;20175;-39
2021/04/10 07:43:52;;;;;;;11.02;6.50;;;;;;;22.55;20.23;100708.63;5049140;28;20037;-39
2021/04/10 07:46:25;;;;;;;16.85;7.45;;;;;;;23.26;19.72;100720.22;5049511;28;20401;-39
2021/04/10 07:49:09;;;;;;;14.77;6.50;;;;;;;23.67;19.02;100725.81;5049734;28;20025;-39
2021/04/10 07:51:51;;;;;;;9.98;5.68;;;;;;;23.00;19.34;100722.78;5049054;28;20473;-39
2021/04/10 07:54:22;;;;;;;9.05;5.75;;;;;;;22.75;19.42;100717.97;5048603;28;20032;-39
2021/04/10 07:57:06;;;;;;;11.75;5.82;;;;;;;23.30;19.36;100713.16;5049157;28;20111;-39
2021/04/10 07:59:33;;;;;;;13.30;8.98;;;;;;;22.98;19.67;100717.59;5048604;28;20485;-39
2021/04/10 08:02:09;;;;;;;9.18;6.03;;;;;;;23.61;19.21;100714.91;5040109;28;20021;-38
2021/04/10 08:04:35;;;;;;;11.45;6.60;;;;;;;22.92;19.29;100715.09;5048915;28;20033;-38
2021/04/10 08:07:00;;;;;;;10.48;6.00;;;;;;;22.71;19.63;100708.72;5047973;28;20024;-39
2021/04/10 08:09:36;;;;;;;18.75;12.30;;;;;;;22.39;19.42;100713.13;5047029;28;20076;-40
2021/04/10 08:12:03;;;;;;;12.48;7.63;;;;;;;22.87;20.13;100710.47;5047752;28;20086;-40
2021/04/10 08:14:45;;;;;;;13.02;7.18;;;;;;;22.01;20.61;100705.97;5048562;28;20024;-39
2021/04/10 08:17:13;;;;;;;11.68;6.93;;;;;;;21.20;21.47;100701.22;5048540;28;20108;-39
2021/04/10 08:19:39;;;;;;;12.80;6.88;;;;;;;21.14;22.21;100700.34;5047233;28;20036;-38
2021/04/10 08:22:05;;;;;;;13.60;8.07;;;;;;;22.96;20.74;100711.63;5048800;28;20033;-39
2021/04/10 08:24:31;;;;;;;10.15;6.40;;;;;;;23.90;19.69;100700.88;5048370;28;20441;-39
2021/04/10 08:27:07;;;;;;;12.07;6.75;;;;;;;24.20;19.08;100696.59;5048123;28;20148;-39
2021/04/10 08:29:32;;;;;;;12.05;6.50;;;;;;;24.92;18.40;100700.06;5048402;28;20033;-38
2021/04/10 08:31:58;;;;;;;8.80;5.53;;;;;;;24.94;17.83;100695.16;5048181;28;20016;-39
2021/04/10 08:34:25;;;;;;;11.23;5.40;;;;;;;25.23;17.98;100694.56;5048317;28;20028;-38
2021/04/10 08:37:02;;;;;;;9.40;5.70;;;;;;;25.11;17.92;100692.13;5048623;28;20029;-38
2021/04/10 08:39:32;;;;;;;7.78;5.32;;;;;;;24.40;17.79;100693.03;5047142;28;20086;-38
2021/04/10 08:41:58;;;;;;;10.23;5.72;;;;;;;24.21;17.37;100690.03;5048463;28;20321;-40
2021/04/10 08:44:29;;;;;;;11.10;5.97;;;;;;;23.86;17.45;100682.69;5048179;28;20080;-39
2021/04/10 08:46:55;;;;;;;8.23;5.53;;;;;;;22.36;19.27;100685.69;5048965;28;20040;-40
2021/04/10 08:49:20;;;;;;;7.03;5.20;;;;;;;21.68;19.72;100677.97;5045119;28;20025;-39
2021/04/10 08:51:48;;;;;;;10.27;6.05;;;;;;;21.59;20.15;100671.38;5047308;28;20074;-38
2021/04/10 08:54:14;;;;;;;8.45;5.00;;;;;;;21.83;19.67;100674.63;5047372;28;20025;-39
2021/04/10 08:56:39;;;;;;;7.40;4.85;;;;;;;21.80;19.85;100675.97;5047069;28;20044;-39
2021/04/10 08:59:13;;;;;;;8.52;4.55;;;;;;;21.98;18.61;100668.53;5047870;28;20017;-39
2021/04/10 09:01:41;;;;;;;8.27;5.35;;;;;;;22.14;18.11;100670.31;5046633;28;20083;-38
2021/04/10 09:04:07;;;;;;;11.20;4.95;;;;;;;22.20;18.72;100673.88;5048346;28;20025;-39
2021/04/10 09:06:33;;;;;;;10.57;5.15;;;;;;;22.66;18.77;100663.41;5048255;28;20054;-39
2021/04/10 09:09:10;;;;;;;10.45;5.80;;;;;;;22.47;19.08;100657.59;5051707;28;20091;-39
2021/04/10 09:11:36;;;;;;;10.50;6.15;;;;;;;20.30;21.74;100649.88;5051883;28;20025;-40
2021/04/10 09:14:01;;;;;;;6.78;5.05;;;;;;;20.83;20.08;100650.41;5038556;28;20473;-39
2021/04/10 09:16:37;;;;;;;8.40;5.50;;;;;;;21.21;20.19;100654.13;5052342;28;20044;-38
2021/04/10 09:19:15;;;;;;;11.77;5.53;;;;;;;21.99;19.65;100653.91;5051790;28;20348;-39
2021/04/10 09:21:46;;;;;;;7.80;5.05;;;;;;;22.43;19.49;100648.34;5043438;28;20021;-38
2021/04/10 09:24:18;;;;;;;7.75;5.00;;;;;;;22.50;18.96;100646.19;5051202;28;20114;-39
2021/04/10 09:27:18;;;;;;;7.97;4.85;;;;;;;22.37;18.85;100642.06;5051620;28;20021;-38
2021/04/10 09:29:56;;;;;;;8.30;5.30;;;;;;;22.75;19.11;100632.00;5051831;28;20062;-38
2021/04/10 09:32:41;;;;;;;7.30;4.95;;;;;;;23.12;18.02;100633.81;5052098;28;20112;-39
2021/04/10 09:35:13;;;;;;;12.50;5.45;;;;;;;23.62;18.10;100628.78;5051932;28;20117;-39
2021/04/10 09:37:39;;;;;;;7.97;5.05;;;;;;;22.95;18.95;100627.75;5051850;28;20017;-38
2021/04/10 09:40:06;;;;;;;9.02;4.82;;;;;;;23.48;18.72;100625.78;5051130;28;20029;-39
2021/04/10 09:42:34;;;;;;;8.68;5.15;;;;;;;23.86;18.31;100622.91;5051100;28;20037;-38
2021/04/10 09:45:19;;;;;;;10.77;5.10;;;;;;;24.17;17.74;100621.78;5051520;28;20060;-39
2021/04/10 09:47:57;;;;;;;6.78;5.03;;;;;;;24.20;18.17;100617.72;5037678;28;20481;-38
2021/04/10 09:50:35;;;;;;;7.40;4.80;;;;;;;24.78;16.69;100604.56;5051567;28;20481;-38
2021/04/10 09:53:13;;;;;;;9.57;5.50;;;;;;;24.68;16.73;100599.16;5050243;28;20404;-39
2021/04/10 09:55:40;;;;;;;7.95;4.80;;;;;;;24.06;17.11;100600.31;5051415;28;20028;-39
2021/04/10 09:58:16;;;;;;;9.32;4.82;;;;;;;21.83;18.86;100594.16;5051631;28;20021;-39
2021/04/10 10:00:42;;;;;;;8.70;4.97;;;;;;;21.50;19.65;100594.41;5049926;28;20037;-38
2021/04/10 10:03:08;;;;;;;6.78;5.00;;;;;;;21.65;19.88;100589.94;5051354;28;20025;-39
2021/04/10 10:05:41;;;;;;;8.27;4.78;;;;;;;22.15;18.34;100587.09;5051247;28;20033;-39
2021/04/10 10:08:11;;;;;;;7.90;4.40;;;;;;;22.44;18.27;100587.59;5051441;28;20087;-39
2021/04/10 10:10:37;;;;;;;;;;;;;;;22.53;18.52;100567.03;5051051;28;20056;-39
2021/04/10 10:13:06;;;;;;;8.60;4.75;;;;;;;21.96;19.67;100573.16;5050808;28;19923;-39
2021/04/10 10:15:32;;;;;;;6.22;4.80;;;;;;;21.94;19.45;100567.16;5050029;28;20029;-39
2021/04/10 10:17:58;;;;;;;8.77;4.47;;;;;;;22.61;19.09;100557.59;5050486;28;20025;-38
2021/04/10 10:20:24;;;;;;;6.72;4.65;;;;;;;22.19;18.76;100547.56;5050754;28;20028;-38
2021/04/10 10:22:49;;;;;;;8.60;4.80;;;;;;;21.71;19.41;100552.91;5051872;28;20082;-39
2021/04/10 10:25:15;;;;;;;10.38;4.90;;;;;;;21.02;19.85;100546.22;5051697;28;20181;-39
2021/04/10 10:27:41;;;;;;;7.95;4.35;;;;;;;20.54;20.08;100546.94;5051456;28;20051;-39
2021/04/10 10:30:18;;;;;;;8.73;4.80;;;;;;;20.62;19.61;100550.06;5051747;28;20196;-39
2021/04/10 10:32:47;;;;;;;7.43;4.78;;;;;;;20.39;20.09;100544.84;5051912;28;20119;-39
2021/04/10 10:35:14;;;;;;;6.75;4.22;;;;;;;20.16;20.25;100535.06;5051220;28;20024;-39
2021/04/10 10:37:39;;;;;;;9.48;4.70;;;;;;;19.60;20.75;100538.47;5051365;28;20477;-39
2021/04/10 10:40:06;;;;;;;9.20;5.43;;;;;;;19.70;21.14;100535.97;5051669;28;20021;-39
2021/04/10 10:42:32;;;;;;;10.52;4.68;;;;;;;20.54;20.14;100530.72;5051511;28;20094;-39
2021/04/10 10:44:57;;;;;;;9.18;4.40;;;;;;;21.47;18.79;100531.53;5051631;28;20024;-39
2021/04/10 10:47:25;;;;;;;8.43;4.10;;;;;;;21.91;18.55;100521.63;5051516;28;20029;-40
2021/04/10 10:49:51;;;;;;;9.38;4.43;;;;;;;20.99;20.47;100519.66;5051100;28;20028;-38
2021/04/10 10:52:17;;;;;;;10.50;4.57;;;;;;;21.52;19.20;100519.97;5051459;28;20035;-40
2021/04/10 10:54:43;;;;;;;7.85;4.40;;;;;;;20.35;19.69;100509.38;5033670;28;20017;-39
2021/04/10 10:57:12;;;;;;;9.80;4.43;;;;;;;20.55;19.74;100508.84;5050071;28;20025;-39
2021/04/10 10:59:38;;;;;;;8.63;4.68;;;;;;;21.27;19.70;100513.19;5050946;28;20032;-40
2021/04/10 11:02:03;;;;;;;6.68;4.50;;;;;;;22.15;18.96;100508.50;5050667;28;20052;-39
2021/04/10 11:04:35;;;;;;;8.57;4.70;;;;;;;22.44;18.35;100501.63;5050715;28;20056;-39
2021/04/10 11:07:02;;;;;;;8.07;4.85;;;;;;;21.41;19.14;100499.25;5033280;28;20420;-39
2021/04/10 11:09:32;;;;;;;7.75;4.40;;;;;;;21.64;19.25;100487.28;5050800;28;20535;-42
2021/04/10 11:12:03;;;;;;;6.38;4.50;;;;;;;21.36;19.71;100497.31;5033040;28;20021;-38
2021/04/10 11:14:29;;;;;;;6.78;4.40;;;;;;;20.59;20.21;100488.34;5051128;28;20455;-38
2021/04/10 11:16:56;;;;;;;6.85;4.63;;;;;;;19.45;21.82;100489.63;5050988;28;20032;-38
2021/04/10 11:19:31;;;;;;;6.90;4.22;;;;;;;20.29;20.61;100480.66;5051127;28;20024;-39
2021/04/10 11:21:57;;;;;;;6.30;4.20;;;;;;;20.27;20.16;100478.19;5036084;28;20083;-40